Time;durP1;ratioP1;P1;durP2;ratioP2;P2;SDS_P1;SDS_P2;PMS_P1;PMS_P2;Temp;Humidity;BMP_temperature;BMP_pressure;BME280_temperature;BME280_humidity;BME280_pressure;Samples;Min_cycle;Max_cycle;Signal;HPM_P1;HPM_P2
2021/12/16 00:02:07;;;;;;;23.35;14.90;;;4.00;99.90;;;;;;5073954;28;20479;-64
2021/12/16 00:07:18;;;;;;;16.48;9.70;;;3.90;99.90;;;;;;5086365;28;20223;-64
2021/12/16 00:34:17;;;;;;;14.40;9.75;;;4.10;99.90;;;;;;5081480;28;20594;-64
2021/12/16 00:36:44;;;;;;;14.57;9.73;;;4.10;99.90;;;;;;5088410;28;20567;-63
2021/12/16 00:39:17;;;;;;;12.87;8.30;;;4.10;99.90;;;;;;5090319;28;20514;-65
2021/12/16 00:41:46;;;;;;;13.37;8.63;;;4.10;99.90;;;;;;5088949;28;20436;-64
2021/12/16 00:54:39;;;;;;;11.00;6.60;;;3.70;99.90;;;;;;5086415;28;20422;-63
2021/12/16 00:57:11;;;;;;;9.80;7.27;;;3.60;99.90;;;;;;5089528;28;20424;-64
2021/12/16 00:59:40;;;;;;;8.90;6.07;;;3.50;99.90;;;;;;5086220;28;20539;-65
2021/12/16 01:02:39;;;;;;;10.80;6.77;;;3.50;99.90;;;;;;5088227;28;20263;-63
2021/12/16 01:05:32;;;;;;;8.77;6.03;;;3.50;99.90;;;;;;5085096;28;20820;-65
2021/12/16 01:33:33;;;;;;;9.93;6.53;;;3.50;99.90;;;;;;5089137;28;20213;-64
2021/12/16 01:50:58;;;;;;;8.27;5.43;;;3.40;99.90;;;;;;5088599;28;20678;-65
2021/12/16 01:59:01;;;;;;;10.40;5.13;;;3.30;99.90;;;;;;5084720;28;20265;-64
2021/12/16 02:01:32;;;;;;;7.50;5.03;;;3.40;99.90;;;;;;5088275;28;20190;-63
2021/12/16 02:04:27;;;;;;;7.72;5.15;;;3.30;99.90;;;;;;5088269;28;20195;-64
2021/12/16 02:09:37;;;;;;;7.00;5.60;;;3.20;99.90;;;;;;5086473;28;20227;-65
2021/12/16 02:29:29;;;;;;;9.00;6.10;;;3.20;99.90;;;;;;5086913;28;20195;-64
2021/12/16 02:31:50;;;;;;;14.07;7.68;;;3.20;99.90;;;;;;5083951;28;20656;-63
2021/12/16 02:36:44;;;;;;;14.80;7.90;;;3.20;99.90;;;;;;5086831;28;20724;-65
2021/12/16 02:39:15;;;;;;;13.23;6.35;;;3.30;99.90;;;;;;5071334;28;20185;-62
2021/12/16 02:41:44;;;;;;;12.63;7.63;;;3.20;99.90;;;;;;5087638;28;20201;-64
2021/12/16 02:44:30;;;;;;;14.50;7.20;;;3.20;99.90;;;;;;5087415;28;20192;-65
2021/12/16 02:49:47;;;;;;;12.00;7.57;;;3.20;99.90;;;;;;5083109;28;20294;-65
2021/12/16 02:52:14;;;;;;;13.00;7.65;;;3.30;99.90;;;;;;5088037;28;20884;-63
2021/12/16 02:54:40;;;;;;;11.23;7.07;;;3.30;99.90;;;;;;5086466;28;20188;-63
2021/12/16 02:57:07;;;;;;;13.75;6.88;;;3.30;99.90;;;;;;5087606;28;20901;-64
2021/12/16 02:59:33;;;;;;;9.33;6.87;;;3.20;99.90;;;;;;5085980;28;20672;-64
2021/12/16 03:02:08;;;;;;;16.33;6.37;;;3.30;99.90;;;;;;5087991;28;20448;-65
2021/12/16 03:04:36;;;;;;;11.45;7.00;;;3.30;99.90;;;;;;5087664;28;20433;-65
2021/12/16 03:07:05;;;;;;;13.13;7.27;;;3.30;99.90;;;;;;5086064;28;20324;-65
2021/12/16 03:15:00;;;;;;;13.00;7.45;;;3.50;99.90;;;;;;5087919;28;20514;-64
2021/12/16 03:17:36;;;;;;;12.10;7.65;;;3.50;99.90;;;;;;5085742;28;20204;-64
2021/12/16 03:20:10;;;;;;;12.57;6.40;;;3.40;99.90;;;;;;5087845;28;20169;-64
2021/12/16 03:25:48;;;;;;;9.82;6.60;;;3.30;99.90;;;;;;5084563;28;20434;-64
2021/12/16 03:35:52;;;;;;;12.20;7.13;;;3.10;99.90;;;;;;5084834;28;20204;-62
2021/12/16 03:38:19;;;;;;;10.15;6.70;;;3.10;99.90;;;;;;5087340;28;20180;-63
2021/12/16 03:40:44;;;;;;;8.48;5.88;;;3.20;99.90;;;;;;5086925;28;20268;-61
2021/12/16 03:43:14;;;;;;;7.87;6.00;;;3.20;99.90;;;;;;5087136;28;20269;-63
2021/12/16 03:48:36;;;;;;;10.60;6.38;;;3.30;99.90;;;;;;5083228;28;20415;-62
2021/12/16 03:51:08;;;;;;;7.00;5.60;;;3.30;99.90;;;;;;5083354;28;20276;-61
2021/12/16 03:53:34;;;;;;;10.00;6.05;;;3.40;99.90;;;;;;5083321;28;20559;-62
2021/12/16 03:56:00;;;;;;;5.78;4.38;;;3.40;99.90;;;;;;5087804;28;20570;-62
2021/12/16 03:58:26;;;;;;;6.30;4.37;;;3.40;99.90;;;;;;5090340;28;20195;-62
2021/12/16 04:01:04;;;;;;;5.87;4.03;;;3.30;99.90;;;;;;5090894;28;20499;-62
2021/12/16 04:03:30;;;;;;;5.55;4.05;;;3.30;99.90;;;;;;5085294;28;20257;-64
2021/12/16 04:05:56;;;;;;;6.22;4.05;;;3.30;99.90;;;;;;5071856;28;20239;-62
2021/12/16 04:08:22;;;;;;;4.10;3.70;;;3.30;99.90;;;;;;5088594;28;20216;-63
2021/12/16 04:11:02;;;;;;;6.20;4.27;;;3.40;99.90;;;;;;5090774;28;20543;-63
2021/12/16 04:13:28;;;;;;;5.00;3.90;;;3.40;99.90;;;;;;5090514;28;20172;-63
2021/12/16 04:15:54;;;;;;;4.40;3.93;;;3.50;99.90;;;;;;5090380;28;20418;-63
2021/12/16 04:18:20;;;;;;;4.60;3.90;;;3.50;99.90;;;;;;5071883;28;20188;-63
2021/12/16 04:20:46;;;;;;;5.70;3.97;;;3.50;99.90;;;;;;5089717;28;20431;-64
2021/12/16 04:23:12;;;;;;;4.53;4.10;;;3.50;99.90;;;;;;5088993;28;20180;-62
2021/12/16 04:25:42;;;;;;;6.50;4.93;;;3.50;99.90;;;;;;5089220;28;20271;-65
2021/12/16 04:28:17;;;;;;;6.50;4.70;;;3.60;99.90;;;;;;5087391;28;21271;-63
2021/12/16 04:30:43;;;;;;;7.20;4.80;;;3.60;99.90;;;;;;5087894;28;20487;-63
2021/12/16 04:33:09;;;;;;;5.75;4.32;;;3.60;99.90;;;;;;5089719;28;20960;-64
2021/12/16 04:35:37;;;;;;;8.00;4.13;;;3.60;99.90;;;;;;5089296;28;20193;-63
2021/12/16 04:38:04;;;;;;;5.35;4.45;;;3.70;99.90;;;;;;5089812;28;20427;-64
2021/12/16 04:40:30;;;;;;;6.77;3.90;;;3.70;99.90;;;;;;5089777;28;20205;-63
2021/12/16 04:43:01;;;;;;;6.67;3.90;;;3.60;99.90;;;;;;5089989;28;20424;-63
2021/12/16 04:45:27;;;;;;;5.18;4.07;;;3.50;99.90;;;;;;5089676;28;20178;-65
2021/12/16 04:47:53;;;;;;;5.07;4.22;;;3.30;99.90;;;;;;5089559;28;20392;-63
2021/12/16 04:50:19;;;;;;;7.20;4.47;;;3.30;99.90;;;;;;5089572;28;20212;-65
2021/12/16 04:52:46;;;;;;;5.53;4.45;;;3.30;99.90;;;;;;5089846;28;20182;-65
2021/12/16 04:55:13;;;;;;;9.10;4.33;;;3.20;99.90;;;;;;5089396;28;20645;-65
2021/12/16 04:57:40;;;;;;;5.60;4.75;;;3.20;99.90;;;;;;5087884;28;20437;-66
2021/12/16 05:00:08;;;;;;;8.35;5.82;;;3.20;99.90;;;;;;5088098;28;20225;-65
2021/12/16 05:02:34;;;;;;;4.82;3.65;;;3.20;99.90;;;;;;5089218;28;20220;-65
2021/12/16 05:05:00;;;;;;;6.80;4.60;;;3.20;99.90;;;;;;5088943;28;20201;-64
2021/12/16 05:07:26;;;;;;;6.13;4.20;;;3.20;99.90;;;;;;5069476;28;20459;-65
2021/12/16 05:12:28;;;;;;;5.65;4.18;;;3.10;99.90;;;;;;5088901;28;20183;-66
2021/12/16 05:14:54;;;;;;;4.70;4.10;;;3.20;99.90;;;;;;5087724;28;20213;-66
2021/12/16 05:17:35;;;;;;;6.83;4.63;;;3.30;99.90;;;;;;5078050;28;20533;-64
2021/12/16 05:20:07;;;;;;;8.80;4.47;;;3.30;99.90;;;;;;5086297;28;20179;-66
2021/12/16 05:28:04;;;;;;;5.05;3.97;;;3.50;99.90;;;;;;5071854;28;20547;-65
2021/12/16 05:30:31;;;;;;;6.60;4.70;;;3.50;99.90;;;;;;5087114;28;20664;-65
2021/12/16 05:32:57;;;;;;;7.55;4.45;;;3.60;99.90;;;;;;5085493;28;20647;-65
2021/12/16 05:35:24;;;;;;;7.53;4.88;;;3.60;99.90;;;;;;5086931;28;20226;-65
2021/12/16 05:37:50;;;;;;;9.93;4.32;;;3.70;99.90;;;;;;5086916;28;20278;-67
2021/12/16 05:40:23;;;;;;;8.20;6.32;;;3.70;99.90;;;;;;5086713;28;20292;-66
2021/12/16 05:42:51;;;;;;;5.90;5.30;;;3.70;99.90;;;;;;5087379;28;20199;-66
2021/12/16 05:45:18;;;;;;;5.40;4.33;;;3.70;99.90;;;;;;5087019;28;20454;-67
2021/12/16 05:47:43;;;;;;;5.32;4.30;;;3.70;99.90;;;;;;5085453;28;20435;-67
2021/12/16 05:50:10;;;;;;;8.03;4.67;;;3.70;99.90;;;;;;5086817;28;20725;-65
2021/12/16 05:52:36;;;;;;;4.35;3.72;;;3.70;99.90;;;;;;5086938;28;20208;-65
2021/12/16 05:55:04;;;;;;;5.97;4.50;;;3.70;99.90;;;;;;5086777;28;20198;-66
2021/12/16 05:57:29;;;;;;;4.45;3.45;;;3.60;99.90;;;;;;5085040;28;20435;-65
2021/12/16 05:59:55;;;;;;;3.87;3.47;;;3.70;99.90;;;;;;5086472;28;20221;-65
2021/12/16 06:02:21;;;;;;;4.93;3.97;;;3.60;99.90;;;;;;5086719;28;21008;-65
2021/12/16 06:04:50;;;;;;;3.97;3.40;;;3.70;99.90;;;;;;5086477;28;20432;-67
2021/12/16 06:07:17;;;;;;;5.38;4.25;;;3.70;99.90;;;;;;5085608;28;20461;-66
2021/12/16 06:09:43;;;;;;;4.67;3.83;;;3.70;99.90;;;;;;5086271;28;20529;-65
2021/12/16 06:12:10;;;;;;;5.75;4.90;;;3.80;99.90;;;;;;5082556;28;20587;-66
2021/12/16 06:27:45;;;;;;;5.22;4.70;;;3.60;99.90;;;;;;5083735;28;20810;-65
2021/12/16 06:30:19;;;;;;;4.07;3.63;;;3.60;99.90;;;;;;5085929;28;20271;-66
2021/12/16 06:32:45;;;;;;;3.15;2.88;;;3.60;99.90;;;;;;5086191;28;20200;-64
2021/12/16 06:35:12;;;;;;;5.53;3.63;;;3.70;99.90;;;;;;5084462;28;20241;-65
2021/12/16 06:37:38;;;;;;;6.63;4.17;;;3.80;99.90;;;;;;5084764;28;20192;-66
2021/12/16 06:40:06;;;;;;;5.05;3.30;;;4.00;99.90;;;;;;5084798;28;20431;-66
2021/12/16 06:42:34;;;;;;;4.40;3.50;;;3.80;99.90;;;;;;5084470;28;20711;-66
2021/12/16 06:45:07;;;;;;;3.50;3.10;;;3.80;99.90;;;;;;5082156;28;20185;-66
2021/12/16 06:47:43;;;;;;;4.25;2.85;;;3.80;99.90;;;;;;5080922;28;20513;-64
2021/12/16 06:50:23;;;;;;;3.90;3.50;;;3.70;99.90;;;;;;5084716;28;20208;-65
2021/12/16 06:52:50;;;;;;;3.65;3.13;;;3.70;99.90;;;;;;5085643;28;20928;-67
2021/12/16 06:55:40;;;;;;;4.18;2.65;;;3.70;99.90;;;;;;5084628;28;20188;-65
2021/12/16 07:01:01;;;;;;;3.53;3.03;;;3.80;99.90;;;;;;5085626;28;20290;-66
2021/12/16 07:03:34;;;;;;;4.93;4.07;;;3.90;99.90;;;;;;5084752;28;20884;-67
2021/12/16 07:05:59;;;;;;;5.80;4.80;;;4.00;99.90;;;;;;5080689;28;21111;-67
2021/12/16 07:08:25;;;;;;;7.93;5.60;;;4.00;99.90;;;;;;5067362;28;20527;-66
2021/12/16 07:10:55;;;;;;;7.97;5.20;;;4.00;99.90;;;;;;5083667;28;20579;-67
2021/12/16 07:13:30;;;;;;;9.07;5.50;;;3.90;99.90;;;;;;5081709;28;20821;-67
2021/12/16 07:15:57;;;;;;;8.93;6.63;;;3.90;99.90;;;;;;5083685;28;20546;-67
2021/12/16 07:18:23;;;;;;;8.30;6.90;;;3.90;99.90;;;;;;5084034;28;20184;-67
2021/12/16 07:20:49;;;;;;;8.90;6.50;;;3.80;99.90;;;;;;5085486;28;20967;-67
2021/12/16 07:23:15;;;;;;;10.65;6.80;;;3.90;99.90;;;;;;5084031;28;20186;-68
2021/12/16 07:25:41;;;;;;;9.93;6.57;;;3.80;99.90;;;;;;5085075;28;20198;-67
2021/12/16 07:28:07;;;;;;;10.57;7.47;;;3.80;99.90;;;;;;5085494;28;20201;-67
2021/12/16 07:30:36;;;;;;;12.87;8.57;;;3.80;99.90;;;;;;5087331;28;20238;-66
2021/12/16 07:33:02;;;;;;;12.07;7.97;;;3.80;99.90;;;;;;5088197;28;20468;-67
2021/12/16 07:35:28;;;;;;;13.53;7.07;;;3.90;99.90;;;;;;5087924;28;20505;-67
2021/12/16 07:37:55;;;;;;;12.70;8.03;;;3.80;99.90;;;;;;5088017;28;20442;-67
2021/12/16 07:40:25;;;;;;;15.30;8.67;;;3.80;99.90;;;;;;5089599;28;21178;-67
2021/12/16 07:45:32;;;;;;;10.98;6.68;;;3.80;99.90;;;;;;5086906;28;20235;-67
2021/12/16 07:47:58;;;;;;;13.23;7.85;;;3.90;99.90;;;;;;5089098;28;20220;-67
2021/12/16 07:50:24;;;;;;;11.27;7.13;;;3.80;99.90;;;;;;5071051;28;20214;-65
2021/12/16 07:52:50;;;;;;;10.87;7.37;;;3.80;99.90;;;;;;5089195;28;20420;-67
2021/12/16 07:55:18;;;;;;;11.85;7.32;;;3.80;99.90;;;;;;5087456;28;20436;-67
2021/12/16 07:57:44;;;;;;;11.90;7.13;;;3.80;99.90;;;;;;5083011;28;20198;-67
2021/12/16 08:00:19;;;;;;;13.10;7.10;;;3.90;99.90;;;;;;5088644;28;20423;-68
2021/12/16 08:02:45;;;;;;;12.33;7.90;;;3.90;99.90;;;;;;5084444;28;20237;-67
2021/12/16 08:05:11;;;;;;;13.40;8.20;;;4.00;99.90;;;;;;5088131;28;20435;-66
2021/12/16 08:07:39;;;;;;;16.00;7.83;;;3.90;99.90;;;;;;5087908;28;20232;-66
2021/12/16 08:10:08;;;;;;;12.50;8.30;;;4.10;99.90;;;;;;5088030;28;20447;-66
2021/12/16 08:12:35;;;;;;;10.07;7.30;;;4.00;99.90;;;;;;5088286;28;20520;-66
2021/12/16 08:15:01;;;;;;;11.53;7.60;;;4.00;99.90;;;;;;5083028;28;20817;-68
2021/12/16 08:17:27;;;;;;;15.67;9.27;;;3.90;99.90;;;;;;5086857;28;20452;-67
2021/12/16 08:19:53;;;;;;;21.20;11.60;;;4.00;99.90;;;;;;5088388;28;20525;-67
2021/12/16 08:22:18;;;;;;;12.70;8.10;;;4.10;99.90;;;;;;5086814;28;20533;-67
2021/12/16 08:24:44;;;;;;;11.20;7.37;;;4.10;99.90;;;;;;5088488;28;20438;-67
2021/12/16 08:27:12;;;;;;;10.27;7.00;;;4.10;99.90;;;;;;5086341;28;20247;-66
2021/12/16 08:29:38;;;;;;;8.83;7.03;;;4.10;99.90;;;;;;5086441;28;20431;-66
2021/12/16 08:32:05;;;;;;;12.20;7.30;;;4.20;99.90;;;;;;5087553;28;20958;-66
2021/12/16 08:34:33;;;;;;;10.67;6.93;;;4.20;99.90;;;;;;5087928;28;20190;-66
2021/12/16 08:36:59;;;;;;;9.97;7.93;;;4.20;99.90;;;;;;5087809;28;20841;-65
2021/12/16 08:39:25;;;;;;;7.17;6.30;;;4.20;99.90;;;;;;5087778;28;20436;-67
2021/12/16 08:41:54;;;;;;;9.82;6.43;;;4.20;99.90;;;;;;5086445;28;20440;-67
2021/12/16 08:44:20;;;;;;;11.57;7.17;;;4.20;99.90;;;;;;5087685;28;20425;-67
2021/12/16 08:46:50;;;;;;;9.67;6.57;;;4.20;99.90;;;;;;5087450;28;20438;-67
2021/12/16 08:49:16;;;;;;;11.60;7.50;;;4.20;99.90;;;;;;5069808;28;20829;-67
2021/12/16 08:51:46;;;;;;;10.77;7.60;;;4.20;99.90;;;;;;5087037;28;20475;-67
2021/12/16 08:54:12;;;;;;;16.25;9.25;;;4.20;99.90;;;;;;5086158;28;20606;-67
2021/12/16 08:56:39;;;;;;;14.60;9.33;;;4.20;99.90;;;;;;5086518;28;20213;-66
2021/12/16 08:59:06;;;;;;;19.10;10.57;;;4.10;99.90;;;;;;5069058;28;20438;-67
2021/12/16 09:01:42;;;;;;;18.70;9.73;;;4.20;99.90;;;;;;5087025;28;20579;-66
2021/12/16 09:04:08;;;;;;;14.23;9.27;;;4.20;99.90;;;;;;5083149;28;20423;-67
2021/12/16 09:06:34;;;;;;;12.98;8.63;;;4.20;99.90;;;;;;5086948;28;21066;-66
2021/12/16 09:09:00;;;;;;;16.03;9.17;;;4.20;99.90;;;;;;5086194;28;20194;-66
2021/12/16 09:11:30;;;;;;;14.00;9.20;;;4.20;99.90;;;;;;5086779;28;20475;-67
2021/12/16 09:13:57;;;;;;;19.80;10.25;;;4.20;99.90;;;;;;5084652;28;20480;-66
2021/12/16 09:16:26;;;;;;;15.30;10.00;;;4.30;99.90;;;;;;5085305;28;20188;-67
2021/12/16 09:18:52;;;;;;;16.00;10.05;;;4.30;99.90;;;;;;5068784;28;20460;-65
2021/12/16 09:21:29;;;;;;;14.43;9.03;;;4.40;99.90;;;;;;5083645;28;20186;-66
2021/12/16 09:23:55;;;;;;;14.53;8.73;;;4.30;99.90;;;;;;5087267;28;20424;-67
2021/12/16 09:26:21;;;;;;;13.83;8.90;;;4.20;99.90;;;;;;5085932;28;20490;-66
2021/12/16 09:28:48;;;;;;;19.07;8.90;;;4.10;99.90;;;;;;5085567;28;20432;-66
2021/12/16 09:31:16;;;;;;;16.97;9.20;;;4.10;99.90;;;;;;5084879;28;20540;-67
2021/12/16 09:33:50;;;;;;;15.10;8.97;;;4.10;99.90;;;;;;5086657;28;21039;-66
2021/12/16 09:36:19;;;;;;;11.50;8.63;;;4.10;99.90;;;;;;5086398;28;20428;-66
2021/12/16 09:38:48;;;;;;;9.80;6.97;;;4.00;99.90;;;;;;5085454;28;20477;-66
2021/12/16 09:41:14;;;;;;;10.30;6.80;;;4.10;99.90;;;;;;5086349;28;20434;-66
2021/12/16 09:43:44;;;;;;;11.43;6.47;;;4.10;99.90;;;;;;5068356;28;20440;-67
2021/12/16 09:46:14;;;;;;;8.68;6.45;;;4.40;99.90;;;;;;5086188;28;21037;-67
2021/12/16 09:48:40;;;;;;;10.70;6.00;;;4.30;99.90;;;;;;5085155;28;20292;-67
2021/12/16 09:51:09;;;;;;;12.98;7.63;;;4.40;99.90;;;;;;5086399;28;20513;-67
2021/12/16 09:53:37;;;;;;;11.13;6.95;;;4.50;99.90;;;;;;5086071;28;20198;-65
2021/12/16 09:56:09;;;;;;;10.57;6.80;;;4.40;99.90;;;;;;5085901;28;20529;-67
2021/12/16 09:58:40;;;;;;;8.05;6.05;;;4.40;99.90;;;;;;5084535;28;20436;-67
2021/12/16 10:01:10;;;;;;;8.67;6.23;;;4.60;99.90;;;;;;5084407;28;20197;-66
2021/12/16 10:03:43;;;;;;;17.10;7.67;;;4.70;99.90;;;;;;5085944;28;20463;-66
2021/12/16 10:06:08;;;;;;;9.23;6.30;;;4.80;99.90;;;;;;5083640;28;20546;-66
2021/12/16 10:08:35;;;;;;;8.73;6.60;;;4.80;99.90;;;;;;5084227;28;20440;-67
2021/12/16 10:11:03;;;;;;;8.67;5.90;;;4.90;99.90;;;;;;5085587;28;20326;-67
2021/12/16 10:14:04;;;;;;;11.57;6.93;;;4.90;99.90;;;;;;5084880;28;20428;-66
2021/12/16 10:19:05;;;;;;;11.03;8.20;;;5.00;99.90;;;;;;5084592;28;20327;-67
2021/12/16 10:21:31;;;;;;;11.50;7.60;;;5.10;99.90;;;;;;5085770;28;20997;-67
2021/12/16 10:23:57;;;;;;;15.02;8.23;;;5.20;99.90;;;;;;5085985;28;20262;-67
2021/12/16 10:26:25;;;;;;;15.53;9.00;;;5.20;99.90;;;;;;5085454;28;20185;-66
2021/12/16 10:29:02;;;;;;;15.63;9.30;;;5.20;99.90;;;;;;5085899;28;20832;-67
2021/12/16 10:31:34;;;;;;;13.77;9.13;;;5.30;99.90;;;;;;5085421;28;20467;-67
2021/12/16 10:34:03;;;;;;;14.83;9.10;;;5.20;99.90;;;;;;5065161;28;20550;-66
2021/12/16 10:36:34;;;;;;;12.70;8.57;;;5.20;99.90;;;;;;5084566;28;20423;-65
2021/12/16 10:39:05;;;;;;;15.80;9.40;;;5.20;99.90;;;;;;5084670;28;20417;-66
2021/12/16 10:41:40;;;;;;;13.67;8.57;;;5.20;99.90;;;;;;5085159;28;20431;-66
2021/12/16 10:44:10;;;;;;;18.00;12.90;;;5.20;99.90;;;;;;5084854;28;20483;-67
2021/12/16 10:47:00;;;;;;;13.40;9.33;;;5.20;99.90;;;;;;5085122;28;20467;-66
2021/12/16 10:49:32;;;;;;;17.90;10.57;;;5.20;99.90;;;;;;5081536;28;20443;-66
2021/12/16 10:52:22;;;;;;;13.60;8.87;;;5.20;99.90;;;;;;5083668;28;20474;-65
2021/12/16 10:54:50;;;;;;;16.07;9.97;;;5.20;99.90;;;;;;5081873;28;20397;-67
2021/12/16 10:57:22;;;;;;;19.00;9.23;;;5.10;99.90;;;;;;5085003;28;20476;-67
2021/12/16 11:00:12;;;;;;;15.40;9.07;;;5.10;99.90;;;;;;5083917;28;20431;-66
2021/12/16 11:02:39;;;;;;;16.10;9.07;;;5.20;99.90;;;;;;5085177;28;20448;-67
2021/12/16 11:05:18;;;;;;;15.63;9.73;;;5.30;99.90;;;;;;5084277;28;20416;-65
2021/12/16 11:07:46;;;;;;;17.10;10.43;;;5.30;99.90;;;;;;5079215;28;20436;-66
2021/12/16 11:10:19;;;;;;;16.17;9.70;;;5.30;99.90;;;;;;5084662;28;20501;-66
2021/12/16 11:12:52;;;;;;;17.50;10.30;;;5.30;99.90;;;;;;5080496;28;20525;-66
2021/12/16 11:15:36;;;;;;;14.23;8.87;;;5.30;99.90;;;;;;5081438;28;20420;-67
2021/12/16 11:18:10;;;;;;;15.30;9.63;;;5.40;99.90;;;;;;5084935;28;21326;-66
2021/12/16 11:21:04;;;;;;;13.20;9.20;;;5.30;99.90;;;;;;5084826;28;20478;-65
2021/12/16 11:23:34;;;;;;;14.87;9.17;;;5.40;99.90;;;;;;5082159;28;20461;-65
2021/12/16 11:26:13;;;;;;;14.40;9.43;;;5.30;99.90;;;;;;5083046;28;20444;-67
2021/12/16 11:28:51;;;;;;;13.63;10.40;;;5.40;99.90;;;;;;5081748;28;20432;-66
2021/12/16 11:31:22;;;;;;;22.93;11.57;;;5.40;99.90;;;;;;5085139;28;21049;-66
2021/12/16 11:34:11;;;;;;;31.63;17.97;;;5.40;99.90;;;;;;5085220;28;20447;-66
2021/12/16 11:36:46;;;;;;;32.10;14.63;;;5.40;99.90;;;;;;5080768;28;20521;-66
2021/12/16 11:39:17;;;;;;;32.90;16.20;;;5.50;99.90;;;;;;5081980;28;20980;-67
2021/12/16 11:41:45;;;;;;;25.70;13.83;;;5.50;99.90;;;;;;5083723;28;21229;-67
2021/12/16 11:44:22;;;;;;;17.77;10.60;;;5.50;99.90;;;;;;5083401;28;20433;-66
2021/12/16 11:46:53;;;;;;;16.30;10.93;;;5.50;99.90;;;;;;5083473;28;20434;-65
2021/12/16 11:49:44;;;;;;;31.20;15.70;;;5.50;99.90;;;;;;5080947;28;54000;-67
2021/12/16 11:52:37;;;;;;;17.10;9.80;;;5.50;99.90;;;;;;5071029;28;20520;-75
2021/12/16 11:55:10;;;;;;;29.63;14.47;;;5.50;99.90;;;;;;5070939;28;20401;-75
2021/12/16 11:57:44;;;;;;;28.23;11.50;;;5.50;99.90;;;;;;5069972;28;20934;-75
2021/12/16 12:00:27;;;;;;;12.30;8.37;;;5.40;99.90;;;;;;5049398;28;20411;-75
2021/12/16 12:03:00;;;;;;;13.60;9.07;;;5.40;99.90;;;;;;5049529;28;20459;-74
2021/12/16 12:05:44;;;;;;;12.80;8.80;;;5.40;99.90;;;;;;5050661;28;20406;-75
2021/12/16 12:08:15;;;;;;;16.07;9.97;;;5.50;99.90;;;;;;5050722;28;20778;-75
2021/12/16 12:10:46;;;;;;;19.37;11.30;;;5.50;99.90;;;;;;5050534;28;21005;-76
2021/12/16 12:13:18;;;;;;;29.23;15.80;;;5.50;99.90;;;;;;5049240;28;20533;-75
2021/12/16 12:16:17;;;;;;;20.00;9.43;;;5.50;99.90;;;;;;5050351;28;20418;-75
2021/12/16 12:18:48;;;;;;;13.00;9.33;;;5.40;99.90;;;;;;5050378;28;20418;-75
2021/12/16 12:21:35;;;;;;;18.33;10.83;;;5.50;99.90;;;;;;5049085;28;20911;-75
2021/12/16 12:24:14;;;;;;;12.60;7.80;;;5.50;99.90;;;;;;5050166;28;20396;-75
2021/12/16 12:26:55;;;;;;;10.30;7.17;;;5.60;99.90;;;;;;5050189;28;20441;-75
2021/12/16 12:29:39;;;;;;;11.60;7.83;;;5.50;99.90;;;;;;5049065;28;20406;-75
2021/12/16 12:32:19;;;;;;;9.70;7.47;;;5.50;99.90;;;;;;5048611;28;20458;-75
2021/12/16 12:34:55;;;;;;;8.37;6.90;;;5.60;99.90;;;;;;5049042;28;20460;-74
2021/12/16 12:37:23;;;;;;;10.00;6.97;;;5.60;99.90;;;;;;5049067;28;20462;-75
2021/12/16 12:39:57;;;;;;;13.40;8.07;;;5.60;99.90;;;;;;5044985;28;20970;-76
2021/12/16 12:42:23;;;;;;;10.17;7.60;;;5.70;99.90;;;;;;5041895;28;20422;-75
2021/12/16 12:44:50;;;;;;;11.43;8.00;;;5.60;99.90;;;;;;5034973;28;20426;-74
2021/12/16 12:47:19;;;;;;;12.07;8.27;;;5.60;99.90;;;;;;5041196;28;20473;-75
2021/12/16 12:49:46;;;;;;;12.83;8.57;;;5.50;99.90;;;;;;5028195;28;20445;-75
2021/12/16 12:52:17;;;;;;;11.60;7.23;;;5.60;99.90;;;;;;5043865;28;20974;-76
2021/12/16 12:54:46;;;;;;;11.00;7.60;;;5.70;99.90;;;;;;5044816;28;20403;-75
2021/12/16 12:57:30;;;;;;;9.90;7.40;;;5.70;99.90;;;;;;5043435;28;20780;-75
2021/12/16 12:59:57;;;;;;;9.53;7.70;;;5.70;99.90;;;;;;5044513;28;20430;-75
2021/12/16 13:02:36;;;;;;;9.80;7.10;;;5.60;99.90;;;;;;5036651;28;20448;-75
2021/12/16 13:05:12;;;;;;;14.10;7.17;;;5.50;99.90;;;;;;5031096;28;20418;-75
2021/12/16 13:07:43;;;;;;;9.70;6.90;;;5.40;99.90;;;;;;5030688;28;20973;-74
2021/12/16 13:10:22;;;;;;;13.40;7.77;;;5.50;99.90;;;;;;5028205;28;20438;-75
2021/12/16 13:13:51;;;;;;;9.33;7.10;;;5.60;99.90;;;;;;5028814;28;20994;-75
2021/12/16 13:34:49;;;;;;;14.50;7.90;;;5.70;99.90;;;;;;5030479;28;20454;-76
2021/12/16 13:37:24;;;;;;;15.70;7.90;;;5.70;99.90;;;;;;5027573;28;20557;-75
2021/12/16 13:39:57;;;;;;;10.93;8.47;;;5.70;99.90;;;;;;5027770;28;20472;-76
2021/12/16 13:42:23;;;;;;;15.90;8.70;;;5.70;99.90;;;;;;5028084;28;20654;-76
2021/12/16 13:45:08;;;;;;;13.97;9.67;;;5.60;99.90;;;;;;5029655;28;20640;-76
2021/12/16 14:02:47;;;;;;;11.60;8.90;;;5.80;99.90;;;;;;5006303;28;20416;-75
2021/12/16 14:05:32;;;;;;;14.27;9.80;;;5.90;99.90;;;;;;5010889;28;20469;-75
2021/12/16 14:08:01;;;;;;;17.93;10.03;;;5.90;99.90;;;;;;5010468;28;20440;-75
2021/12/16 14:10:43;;;;;;;17.90;11.30;;;5.90;99.90;;;;;;5010615;28;21062;-75
2021/12/16 14:41:46;;;;;;;14.03;8.40;;;6.00;99.90;;;;;;5010006;28;20427;-76
2021/12/16 14:47:05;;;;;;;11.63;8.07;;;5.90;99.90;;;;;;5010082;28;20454;-76
2021/12/16 14:49:34;;;;;;;11.13;7.90;;;6.00;99.90;;;;;;5010166;28;20510;-77
2021/12/16 14:52:01;;;;;;;12.13;8.33;;;5.90;99.90;;;;;;5009630;28;20479;-76
2021/12/16 14:54:28;;;;;;;12.50;9.40;;;5.90;99.90;;;;;;5009821;28;20416;-77
2021/12/16 14:56:59;;;;;;;10.17;7.13;;;5.90;99.90;;;;;;5008259;28;20444;-77
2021/12/16 14:59:26;;;;;;;11.47;7.60;;;6.00;99.90;;;;;;5008261;28;20432;-77
2021/12/16 15:01:54;;;;;;;12.50;8.57;;;5.90;99.90;;;;;;5007973;28;20439;-77
2021/12/16 15:04:25;;;;;;;13.67;8.07;;;5.80;99.90;;;;;;5009780;28;20443;-77
2021/12/16 15:07:03;;;;;;;11.23;7.13;;;5.80;99.90;;;;;;5009404;28;20474;-77
2021/12/16 15:09:33;;;;;;;8.50;6.50;;;5.80;99.90;;;;;;5009746;28;20993;-77
2021/12/16 15:15:00;;;;;;;12.73;6.97;;;5.70;99.90;;;;;;5010019;28;20427;-77
2021/12/16 15:35:49;;;;;;;8.93;6.10;;;5.60;99.90;;;;;;5008147;28;20415;-76
2021/12/16 15:40:31;;;;;;;8.33;6.27;;;5.60;99.90;;;;;;5008660;28;20435;-76
2021/12/16 15:43:00;;;;;;;6.67;5.93;;;5.50;99.90;;;;;;5008725;28;20444;-76
2021/12/16 15:45:47;;;;;;;8.83;6.27;;;5.50;99.90;;;;;;5008126;28;20420;-76
2021/12/16 15:48:16;;;;;;;10.50;7.00;;;5.40;99.90;;;;;;5007742;28;20495;-76
2021/12/16 15:50:51;;;;;;;10.33;6.90;;;5.30;99.90;;;;;;5007445;28;20471;-76
2021/12/16 15:53:21;;;;;;;11.60;7.30;;;5.40;99.90;;;;;;5022537;28;20423;-76
2021/12/16 15:56:05;;;;;;;10.27;7.47;;;5.30;99.90;;;;;;5022607;28;20563;-76
2021/12/16 15:58:34;;;;;;;8.67;6.67;;;5.30;99.90;;;;;;5007416;28;20431;-76
2021/12/16 16:01:07;;;;;;;9.80;6.63;;;5.30;99.90;;;;;;5007270;28;20436;-76
2021/12/16 16:03:33;;;;;;;9.83;6.77;;;5.30;99.90;;;;;;5006032;28;20420;-76
2021/12/16 16:06:02;;;;;;;8.13;5.90;;;5.20;99.90;;;;;;5007029;28;20514;-76
2021/12/16 16:08:32;;;;;;;9.30;6.70;;;5.20;99.90;;;;;;5007064;28;20439;-76
2021/12/16 16:11:02;;;;;;;13.20;6.50;;;5.10;99.90;;;;;;5005574;28;21126;-76
2021/12/16 16:13:41;;;;;;;10.57;8.23;;;5.10;99.90;;;;;;5007949;28;20185;-77
2021/12/16 16:16:09;;;;;;;13.43;9.87;;;5.10;99.90;;;;;;5008284;28;20538;-76
2021/12/16 16:18:41;;;;;;;9.50;6.53;;;5.00;99.90;;;;;;5008654;28;20421;-77
2021/12/16 16:21:12;;;;;;;20.83;9.13;;;5.00;99.90;;;;;;5008341;28;20921;-77
2021/12/16 16:23:41;;;;;;;11.33;7.50;;;5.00;99.90;;;;;;5007937;28;20415;-77
2021/12/16 16:26:10;;;;;;;13.37;8.60;;;4.90;99.90;;;;;;5007307;28;20443;-77
2021/12/16 16:28:39;;;;;;;14.73;10.83;;;5.00;99.90;;;;;;5005665;28;20444;-77
2021/12/16 16:31:10;;;;;;;14.37;10.77;;;5.00;99.90;;;;;;5007200;28;20470;-77
2021/12/16 16:33:37;;;;;;;15.43;9.47;;;5.10;99.90;;;;;;5005762;28;20420;-76
2021/12/16 16:36:09;;;;;;;13.90;9.90;;;4.90;99.90;;;;;;5007013;28;20445;-76
2021/12/16 16:38:40;;;;;;;12.77;7.40;;;5.00;99.90;;;;;;5009689;28;20481;-76
2021/12/16 16:41:16;;;;;;;9.33;7.57;;;5.00;99.90;;;;;;5010221;28;20427;-77
2021/12/16 16:43:53;;;;;;;15.83;8.00;;;5.00;99.90;;;;;;5011724;28;20420;-77
2021/12/16 16:46:41;;;;;;;18.30;7.73;;;4.90;99.90;;;;;;5011709;28;20546;-77
2021/12/16 16:49:14;;;;;;;11.20;8.50;;;4.90;99.90;;;;;;5009160;28;20439;-77
2021/12/16 16:51:43;;;;;;;12.17;9.00;;;4.90;99.90;;;;;;5011169;28;20471;-77
2021/12/16 16:54:27;;;;;;;20.47;11.33;;;4.80;99.90;;;;;;5010409;28;20464;-77
2021/12/16 16:57:00;;;;;;;17.80;10.37;;;4.80;99.90;;;;;;5009917;28;21027;-77
2021/12/16 16:59:47;;;;;;;11.50;8.30;;;4.80;99.90;;;;;;5008478;28;20443;-76
2021/12/16 17:02:26;;;;;;;14.80;9.57;;;4.80;99.90;;;;;;5009822;28;21331;-77
2021/12/16 17:04:56;;;;;;;15.57;11.53;;;4.80;99.90;;;;;;5010487;28;20455;-77
2021/12/16 17:07:23;;;;;;;18.07;11.13;;;4.80;99.90;;;;;;5009781;28;20447;-77
2021/12/16 17:09:49;;;;;;;17.80;11.33;;;4.70;99.90;;;;;;5009791;28;20439;-77
2021/12/16 17:12:15;;;;;;;18.93;11.47;;;4.60;99.90;;;;;;5009704;28;20494;-77
2021/12/16 17:14:53;;;;;;;20.43;11.10;;;4.50;99.90;;;;;;5009627;28;20431;-76
2021/12/16 17:17:23;;;;;;;15.83;10.57;;;4.50;99.90;;;;;;5009485;28;20921;-77